sensor_id;sensor_type;location;lat;lon;timestamp;pressure;altitude;pressure_sealevel;temperature;humidity
46506;BME280;32220;49.808;9.968;2023-06-22T00:02:23;99037.19;;;22.30;70.21
46506;BME280;32220;49.808;9.968;2023-06-22T00:04:51;99048.53;;;22.33;70.18
46506;BME280;32220;49.808;9.968;2023-06-22T00:07:19;99040.06;;;22.28;70.39
46506;BME280;32220;49.808;9.968;2023-06-22T00:09:48;99043.44;;;22.30;70.20
46506;BME280;32220;49.808;9.968;2023-06-22T00:12:16;99033.34;;;22.32;70.26
46506;BME280;32220;49.808;9.968;2023-06-22T00:14:44;99018.16;;;22.31;70.14
46506;BME280;32220;49.808;9.968;2023-06-22T00:17:12;99001.97;;;22.31;70.33
46506;BME280;32220;49.808;9.968;2023-06-22T00:19:39;98982.75;;;22.34;71.87
46506;BME280;32220;49.808;9.968;2023-06-22T00:22:07;98989.81;;;22.43;73.27
46506;BME280;32220;49.808;9.968;2023-06-22T00:24:35;98993.00;;;22.39;72.60
46506;BME280;32220;49.808;9.968;2023-06-22T00:27:05;98967.22;;;22.36;72.54
46506;BME280;32220;49.808;9.968;2023-06-22T00:29:32;98932.28;;;22.27;72.85
46506;BME280;32220;49.808;9.968;2023-06-22T00:32:00;98938.56;;;22.43;74.50
46506;BME280;32220;49.808;9.968;2023-06-22T00:34:28;98882.56;;;22.21;75.36
46506;BME280;32220;49.808;9.968;2023-06-22T00:36:55;98885.25;;;22.29;75.61
46506;BME280;32220;49.808;9.968;2023-06-22T00:39:23;98896.72;;;22.31;76.42
46506;BME280;32220;49.808;9.968;2023-06-22T00:41:51;98896.91;;;22.30;77.74
46506;BME280;32220;49.808;9.968;2023-06-22T00:44:20;98877.84;;;22.23;79.20
46506;BME280;32220;49.808;9.968;2023-06-22T00:46:48;98870.41;;;22.17;79.53
46506;BME280;32220;49.808;9.968;2023-06-22T00:49:16;98890.00;;;22.19;79.21
46506;BME280;32220;49.808;9.968;2023-06-22T00:51:44;98873.94;;;22.01;79.35
46506;BME280;32220;49.808;9.968;2023-06-22T00:54:14;98897.06;;;22.04;79.74
46506;BME280;32220;49.808;9.968;2023-06-22T00:56:41;98887.25;;;21.95;79.90
46506;BME280;32220;49.808;9.968;2023-06-22T00:59:10;98895.19;;;21.96;79.86
46506;BME280;32220;49.808;9.968;2023-06-22T01:01:41;98889.94;;;21.86;78.97
46506;BME280;32220;49.808;9.968;2023-06-22T01:04:09;98896.66;;;21.91;78.63
46506;BME280;32220;49.808;9.968;2023-06-22T01:06:43;98887.22;;;21.78;78.39
46506;BME280;32220;49.808;9.968;2023-06-22T01:09:15;98890.91;;;21.77;78.11
46506;BME280;32220;49.808;9.968;2023-06-22T01:11:53;98901.38;;;21.80;78.20
46506;BME280;32220;49.808;9.968;2023-06-22T01:14:26;98901.22;;;21.74;77.66
46506;BME280;32220;49.808;9.968;2023-06-22T01:16:59;98894.28;;;21.71;78.23
46506;BME280;32220;49.808;9.968;2023-06-22T01:19:35;98903.41;;;21.78;78.80
46506;BME280;32220;49.808;9.968;2023-06-22T01:22:06;98911.84;;;21.75;79.40
46506;BME280;32220;49.808;9.968;2023-06-22T01:24:44;98924.28;;;21.76;79.40
46506;BME280;32220;49.808;9.968;2023-06-22T01:27:33;98930.34;;;21.78;80.31
46506;BME280;32220;49.808;9.968;2023-06-22T01:30:11;98929.19;;;21.73;81.00
46506;BME280;32220;49.808;9.968;2023-06-22T01:32:40;98919.72;;;21.69;82.26
46506;BME280;32220;49.808;9.968;2023-06-22T01:35:09;98948.91;;;21.81;81.31
46506;BME280;32220;49.808;9.968;2023-06-22T01:37:38;98942.66;;;21.73;80.56
46506;BME280;32220;49.808;9.968;2023-06-22T01:42:35;98961.88;;;21.78;80.03
46506;BME280;32220;49.808;9.968;2023-06-22T01:45:05;98963.38;;;21.80;79.26
46506;BME280;32220;49.808;9.968;2023-06-22T01:47:36;98976.22;;;21.86;79.37
46506;BME280;32220;49.808;9.968;2023-06-22T01:50:05;98988.72;;;21.88;78.72
46506;BME280;32220;49.808;9.968;2023-06-22T01:52:33;99036.47;;;22.03;78.47
46506;BME280;32220;49.808;9.968;2023-06-22T01:55:01;99072.31;;;21.96;78.52
46506;BME280;32220;49.808;9.968;2023-06-22T01:57:30;99125.25;;;21.97;79.28
46506;BME280;32220;49.808;9.968;2023-06-22T02:00:00;99161.03;;;21.99;80.29
46506;BME280;32220;49.808;9.968;2023-06-22T02:02:39;99208.47;;;22.09;81.47
46506;BME280;32220;49.808;9.968;2023-06-22T02:05:15;99234.94;;;22.14;81.75
46506;BME280;32220;49.808;9.968;2023-06-22T02:07:47;99238.97;;;22.10;81.83
46506;BME280;32220;49.808;9.968;2023-06-22T02:10:19;99266.31;;;22.15;82.21
46506;BME280;32220;49.808;9.968;2023-06-22T02:12:50;99260.19;;;22.05;84.40
46506;BME280;32220;49.808;9.968;2023-06-22T02:15:19;99237.09;;;21.84;85.92
46506;BME280;32220;49.808;9.968;2023-06-22T02:17:48;99232.66;;;21.75;85.91
46506;BME280;32220;49.808;9.968;2023-06-22T02:20:17;99233.31;;;21.77;86.57
46506;BME280;32220;49.808;9.968;2023-06-22T02:22:45;99222.63;;;21.68;86.92
46506;BME280;32220;49.808;9.968;2023-06-22T02:25:13;99212.34;;;21.63;87.04
46506;BME280;32220;49.808;9.968;2023-06-22T02:27:42;99191.28;;;21.67;87.81
46506;BME280;32220;49.808;9.968;2023-06-22T02:30:10;99168.88;;;21.66;87.82
46506;BME280;32220;49.808;9.968;2023-06-22T02:32:39;99121.97;;;21.51;90.38
46506;BME280;32220;49.808;9.968;2023-06-22T02:35:08;99097.53;;;21.52;93.33
46506;BME280;32220;49.808;9.968;2023-06-22T02:37:38;98934.13;;;21.09;93.69
46506;BME280;32220;49.808;9.968;2023-06-22T02:40:08;98871.63;;;21.40;94.83
46506;BME280;32220;49.808;9.968;2023-06-22T02:42:37;98803.75;;;21.28;97.91
46506;BME280;32220;49.808;9.968;2023-06-22T02:45:05;98804.03;;;21.17;99.09
46506;BME280;32220;49.808;9.968;2023-06-22T02:47:33;98813.72;;;21.02;99.80
46506;BME280;32220;49.808;9.968;2023-06-22T02:50:02;98834.13;;;21.04;99.98
46506;BME280;32220;49.808;9.968;2023-06-22T02:52:33;98810.50;;;20.90;99.27
46506;BME280;32220;49.808;9.968;2023-06-22T02:55:04;98814.56;;;20.94;100.00
46506;BME280;32220;49.808;9.968;2023-06-22T02:57:33;98810.69;;;20.97;100.00
46506;BME280;32220;49.808;9.968;2023-06-22T03:00:03;98805.94;;;20.91;100.00
46506;BME280;32220;49.808;9.968;2023-06-22T03:02:43;98821.16;;;21.00;100.00
46506;BME280;32220;49.808;9.968;2023-06-22T03:05:12;98819.78;;;20.96;100.00
46506;BME280;32220;49.808;9.968;2023-06-22T03:07:41;98817.25;;;20.94;99.47
46506;BME280;32220;49.808;9.968;2023-06-22T03:10:12;98850.78;;;21.08;99.37
46506;BME280;32220;49.808;9.968;2023-06-22T03:12:41;98829.06;;;21.01;99.08
46506;BME280;32220;49.808;9.968;2023-06-22T03:15:11;98842.03;;;21.06;98.82
46506;BME280;32220;49.808;9.968;2023-06-22T03:17:40;98847.41;;;21.06;98.24
46506;BME280;32220;49.808;9.968;2023-06-22T03:20:09;98860.41;;;21.10;98.75
46506;BME280;32220;49.808;9.968;2023-06-22T03:22:38;98874.56;;;21.12;98.23
46506;BME280;32220;49.808;9.968;2023-06-22T03:25:06;98891.38;;;21.14;97.26
46506;BME280;32220;49.808;9.968;2023-06-22T03:27:42;98928.16;;;21.24;97.27
46506;BME280;32220;49.808;9.968;2023-06-22T03:30:11;98928.31;;;21.22;96.80
46506;BME280;32220;49.808;9.968;2023-06-22T03:32:39;98921.00;;;21.14;96.94
46506;BME280;32220;49.808;9.968;2023-06-22T03:35:08;98887.25;;;20.94;95.76
46506;BME280;32220;49.808;9.968;2023-06-22T03:37:40;98943.50;;;21.31;95.40
46506;BME280;32220;49.808;9.968;2023-06-22T03:40:09;98932.56;;;21.25;95.11
46506;BME280;32220;49.808;9.968;2023-06-22T03:42:36;98929.19;;;21.31;95.17
46506;BME280;32220;49.808;9.968;2023-06-22T03:45:07;98938.81;;;21.41;95.83
46506;BME280;32220;49.808;9.968;2023-06-22T03:47:35;98921.63;;;21.34;94.97
46506;BME280;32220;49.808;9.968;2023-06-22T03:50:04;98935.66;;;21.46;94.35
46506;BME280;32220;49.808;9.968;2023-06-22T03:52:33;98925.25;;;21.51;93.74
46506;BME280;32220;49.808;9.968;2023-06-22T03:55:01;98946.16;;;21.65;92.99
46506;BME280;32220;49.808;9.968;2023-06-22T03:57:28;98924.94;;;21.62;92.47
46506;BME280;32220;49.808;9.968;2023-06-22T03:59:57;98933.56;;;21.74;91.91
46506;BME280;32220;49.808;9.968;2023-06-22T04:02:26;98930.72;;;21.75;91.41
46506;BME280;32220;49.808;9.968;2023-06-22T04:04:54;98929.19;;;21.81;90.99
46506;BME280;32220;49.808;9.968;2023-06-22T04:07:22;98933.09;;;21.86;90.09
46506;BME280;32220;49.808;9.968;2023-06-22T04:09:50;98931.56;;;21.92;89.98
46506;BME280;32220;49.808;9.968;2023-06-22T04:12:18;98927.41;;;22.06;89.67
46506;BME280;32220;49.808;9.968;2023-06-22T04:14:46;98922.00;;;22.14;89.43
46506;BME280;32220;49.808;9.968;2023-06-22T04:17:13;98917.28;;;22.16;89.07
46506;BME280;32220;49.808;9.968;2023-06-22T04:19:42;98914.63;;;22.24;88.23
46506;BME280;32220;49.808;9.968;2023-06-22T04:22:10;98907.88;;;22.20;88.15
46506;BME280;32220;49.808;9.968;2023-06-22T04:24:38;98924.72;;;22.38;87.91
46506;BME280;32220;49.808;9.968;2023-06-22T04:27:06;98901.97;;;22.33;87.39
46506;BME280;32220;49.808;9.968;2023-06-22T04:29:33;98871.28;;;22.17;87.40
46506;BME280;32220;49.808;9.968;2023-06-22T04:32:02;98931.78;;;22.64;86.93
46506;BME280;32220;49.808;9.968;2023-06-22T04:34:31;98907.16;;;22.58;86.78
46506;BME280;32220;49.808;9.968;2023-06-22T04:37:00;98918.63;;;22.69;86.92
46506;BME280;32220;49.808;9.968;2023-06-22T04:39:28;98925.72;;;22.86;86.64
46506;BME280;32220;49.808;9.968;2023-06-22T04:41:57;98905.63;;;22.80;86.26
46506;BME280;32220;49.808;9.968;2023-06-22T04:44:26;98907.00;;;22.84;86.12
46506;BME280;32220;49.808;9.968;2023-06-22T04:46:55;98931.78;;;22.96;86.55
46506;BME280;32220;49.808;9.968;2023-06-22T04:49:26;98920.25;;;23.02;86.44
46506;BME280;32220;49.808;9.968;2023-06-22T04:52:01;98917.22;;;23.05;86.12
46506;BME280;32220;49.808;9.968;2023-06-22T04:54:29;98914.19;;;23.08;86.24
46506;BME280;32220;49.808;9.968;2023-06-22T04:56:59;98916.34;;;23.13;86.27
46506;BME280;32220;49.808;9.968;2023-06-22T04:59:27;98913.13;;;23.17;85.82
46506;BME280;32220;49.808;9.968;2023-06-22T05:01:56;98915.31;;;23.22;85.41
46506;BME280;32220;49.808;9.968;2023-06-22T05:04:25;98915.63;;;23.27;85.11
46506;BME280;32220;49.808;9.968;2023-06-22T05:06:54;98919.50;;;23.33;85.46
46506;BME280;32220;49.808;9.968;2023-06-22T05:09:23;98915.91;;;23.40;85.18
46506;BME280;32220;49.808;9.968;2023-06-22T05:11:51;98920.44;;;23.48;84.66
46506;BME280;32220;49.808;9.968;2023-06-22T05:14:19;98885.31;;;23.40;84.42
46506;BME280;32220;49.808;9.968;2023-06-22T05:16:46;98895.41;;;23.54;84.02
46506;BME280;32220;49.808;9.968;2023-06-22T05:19:14;98904.63;;;23.68;83.85
46506;BME280;32220;49.808;9.968;2023-06-22T05:21:42;98903.88;;;23.82;83.49
46506;BME280;32220;49.808;9.968;2023-06-22T05:24:10;98903.63;;;23.91;83.20
46506;BME280;32220;49.808;9.968;2023-06-22T05:26:40;98891.81;;;23.92;82.91
46506;BME280;32220;49.808;9.968;2023-06-22T05:29:07;98848.16;;;23.73;82.39
46506;BME280;32220;49.808;9.968;2023-06-22T05:31:35;98890.00;;;24.08;82.20
46506;BME280;32220;49.808;9.968;2023-06-22T05:34:03;98899.88;;;24.23;82.03
46506;BME280;32220;49.808;9.968;2023-06-22T05:36:31;98892.06;;;24.28;81.80
46506;BME280;32220;49.808;9.968;2023-06-22T05:38:58;98895.25;;;24.32;81.53
46506;BME280;32220;49.808;9.968;2023-06-22T05:41:26;98908.25;;;24.51;81.47
46506;BME280;32220;49.808;9.968;2023-06-22T05:43:55;98908.00;;;24.61;80.74
46506;BME280;32220;49.808;9.968;2023-06-22T05:46:23;98896.63;;;24.65;80.45
46506;BME280;32220;49.808;9.968;2023-06-22T05:48:51;98902.53;;;24.84;79.84
46506;BME280;32220;49.808;9.968;2023-06-22T05:51:18;98889.34;;;24.81;79.32
46506;BME280;32220;49.808;9.968;2023-06-22T05:53:46;98902.38;;;25.00;78.54
46506;BME280;32220;49.808;9.968;2023-06-22T05:56:16;98913.78;;;25.10;77.24
46506;BME280;32220;49.808;9.968;2023-06-22T05:58:43;98914.91;;;25.16;77.29
46506;BME280;32220;49.808;9.968;2023-06-22T06:01:13;98914.63;;;25.25;76.73
46506;BME280;32220;49.808;9.968;2023-06-22T06:03:41;98900.56;;;25.36;76.30
46506;BME280;32220;49.808;9.968;2023-06-22T06:06:10;98908.44;;;25.46;76.28
46506;BME280;32220;49.808;9.968;2023-06-22T06:08:38;98882.16;;;25.47;75.59
46506;BME280;32220;49.808;9.968;2023-06-22T06:11:06;98903.09;;;25.67;74.94
46506;BME280;32220;49.808;9.968;2023-06-22T06:13:34;98892.56;;;25.79;74.10
46506;BME280;32220;49.808;9.968;2023-06-22T06:16:02;98887.81;;;25.81;73.30
46506;BME280;32220;49.808;9.968;2023-06-22T06:18:31;98895.25;;;25.94;72.89
46506;BME280;32220;49.808;9.968;2023-06-22T06:20:58;98862.41;;;25.89;72.78
46506;BME280;32220;49.808;9.968;2023-06-22T06:23:26;98872.69;;;26.15;72.02
46506;BME280;32220;49.808;9.968;2023-06-22T06:25:54;98868.91;;;26.30;71.85
46506;BME280;32220;49.808;9.968;2023-06-22T06:28:22;98877.44;;;26.55;71.87
46506;BME280;32220;49.808;9.968;2023-06-22T06:30:50;98863.50;;;26.65;71.13
46506;BME280;32220;49.808;9.968;2023-06-22T06:33:18;98867.81;;;26.80;71.37
46506;BME280;32220;49.808;9.968;2023-06-22T06:35:48;98853.31;;;26.73;69.96
46506;BME280;32220;49.808;9.968;2023-06-22T06:38:16;98861.56;;;26.87;70.33
46506;BME280;32220;49.808;9.968;2023-06-22T06:40:44;98851.63;;;26.94;70.12
46506;BME280;32220;49.808;9.968;2023-06-22T06:43:11;98865.31;;;27.20;68.41
46506;BME280;32220;49.808;9.968;2023-06-22T06:45:39;98861.63;;;27.34;66.39
46506;BME280;32220;49.808;9.968;2023-06-22T06:48:07;98869.25;;;27.52;64.98
46506;BME280;32220;49.808;9.968;2023-06-22T06:50:35;98864.06;;;27.64;64.75
46506;BME280;32220;49.808;9.968;2023-06-22T06:53:04;98868.06;;;27.74;65.17
46506;BME280;32220;49.808;9.968;2023-06-22T06:55:32;98853.88;;;27.79;64.40
46506;BME280;32220;49.808;9.968;2023-06-22T06:58:01;98864.78;;;27.92;64.24
46506;BME280;32220;49.808;9.968;2023-06-22T07:00:30;98862.69;;;28.01;63.27
46506;BME280;32220;49.808;9.968;2023-06-22T07:02:58;98860.19;;;28.12;63.47
46506;BME280;32220;49.808;9.968;2023-06-22T07:05:25;98873.63;;;28.34;62.41
46506;BME280;32220;49.808;9.968;2023-06-22T07:07:53;98880.16;;;28.52;61.85
46506;BME280;32220;49.808;9.968;2023-06-22T07:10:23;98884.53;;;28.67;61.30
46506;BME280;32220;49.808;9.968;2023-06-22T07:12:50;98878.28;;;28.79;60.88
46506;BME280;32220;49.808;9.968;2023-06-22T07:15:18;98884.09;;;29.03;60.48
46506;BME280;32220;49.808;9.968;2023-06-22T07:17:46;98887.59;;;29.23;59.82
46506;BME280;32220;49.808;9.968;2023-06-22T07:20:14;98880.03;;;29.38;58.98
46506;BME280;32220;49.808;9.968;2023-06-22T07:22:43;98862.56;;;29.46;58.83
46506;BME280;32220;49.808;9.968;2023-06-22T07:25:12;98879.28;;;29.62;57.39
46506;BME280;32220;49.808;9.968;2023-06-22T07:27:46;98867.47;;;29.69;58.19
46506;BME280;32220;49.808;9.968;2023-06-22T07:30:14;98876.56;;;29.94;57.55
46506;BME280;32220;49.808;9.968;2023-06-22T07:32:42;98894.34;;;30.16;55.71
46506;BME280;32220;49.808;9.968;2023-06-22T07:35:10;98892.41;;;30.48;54.69
46506;BME280;32220;49.808;9.968;2023-06-22T07:37:37;98887.13;;;30.78;53.74
46506;BME280;32220;49.808;9.968;2023-06-22T07:40:07;98892.00;;;30.94;52.70
46506;BME280;32220;49.808;9.968;2023-06-22T07:42:35;98892.06;;;31.13;51.62
46506;BME280;32220;49.808;9.968;2023-06-22T07:45:07;98878.84;;;31.28;51.70
46506;BME280;32220;49.808;9.968;2023-06-22T07:47:35;98872.66;;;31.51;51.33
46506;BME280;32220;49.808;9.968;2023-06-22T07:50:04;98884.19;;;32.31;49.07
46506;BME280;32220;49.808;9.968;2023-06-22T07:52:32;98887.50;;;33.09;48.22
46506;BME280;32220;49.808;9.968;2023-06-22T07:55:00;98898.47;;;33.84;46.33
46506;BME280;32220;49.808;9.968;2023-06-22T07:57:28;98906.09;;;34.39;43.55
46506;BME280;32220;49.808;9.968;2023-06-22T08:00:00;98910.69;;;35.17;42.53
46506;BME280;32220;49.808;9.968;2023-06-22T08:02:41;98922.19;;;36.18;40.61
46506;BME280;32220;49.808;9.968;2023-06-22T08:05:09;98934.84;;;37.10;38.24
46506;BME280;32220;49.808;9.968;2023-06-22T08:07:37;98945.34;;;38.07;36.86
46506;BME280;32220;49.808;9.968;2023-06-22T08:10:10;98946.03;;;38.65;34.87
46506;BME280;32220;49.808;9.968;2023-06-22T08:12:38;98935.75;;;39.27;34.37
46506;BME280;32220;49.808;9.968;2023-06-22T08:15:07;98939.63;;;40.10;33.31
46506;BME280;32220;49.808;9.968;2023-06-22T08:17:36;98945.38;;;41.02;32.68
46506;BME280;32220;49.808;9.968;2023-06-22T08:20:07;98923.50;;;41.48;31.60
46506;BME280;32220;49.808;9.968;2023-06-22T08:22:38;98940.13;;;41.53;30.61
46506;BME280;32220;49.808;9.968;2023-06-22T08:25:07;98919.19;;;41.37;31.81
46506;BME280;32220;49.808;9.968;2023-06-22T08:27:35;98911.59;;;41.19;31.39
46506;BME280;32220;49.808;9.968;2023-06-22T08:30:03;98904.22;;;40.75;31.54
46506;BME280;32220;49.808;9.968;2023-06-22T08:32:32;98915.56;;;40.45;32.03
46506;BME280;32220;49.808;9.968;2023-06-22T08:35:00;98904.59;;;40.19;32.86
46506;BME280;32220;49.808;9.968;2023-06-22T08:37:30;98903.56;;;40.10;31.93
46506;BME280;32220;49.808;9.968;2023-06-22T08:40:02;98905.38;;;39.81;32.46
46506;BME280;32220;49.808;9.968;2023-06-22T08:42:31;98908.72;;;39.78;32.95
46506;BME280;32220;49.808;9.968;2023-06-22T08:44:59;98884.66;;;39.58;32.55
46506;BME280;32220;49.808;9.968;2023-06-22T08:47:27;98864.00;;;39.30;32.61
46506;BME280;32220;49.808;9.968;2023-06-22T08:49:54;98880.91;;;39.24;32.79
46506;BME280;32220;49.808;9.968;2023-06-22T08:52:23;98885.13;;;39.06;32.98
46506;BME280;32220;49.808;9.968;2023-06-22T08:54:52;98879.53;;;38.96;34.20
46506;BME280;32220;49.808;9.968;2023-06-22T08:57:20;98884.56;;;38.73;34.20
46506;BME280;32220;49.808;9.968;2023-06-22T08:59:48;98885.16;;;38.55;34.12
46506;BME280;32220;49.808;9.968;2023-06-22T09:02:18;98880.41;;;38.51;34.99
46506;BME280;32220;49.808;9.968;2023-06-22T09:04:46;98895.66;;;38.68;33.27
46506;BME280;32220;49.808;9.968;2023-06-22T09:07:14;98896.50;;;38.69;32.91
46506;BME280;32220;49.808;9.968;2023-06-22T09:09:48;98899.25;;;38.94;32.81
46506;BME280;32220;49.808;9.968;2023-06-22T09:12:17;98890.63;;;38.96;33.43
46506;BME280;32220;49.808;9.968;2023-06-22T09:14:46;98896.19;;;38.86;32.81
46506;BME280;32220;49.808;9.968;2023-06-22T09:17:14;98886.22;;;39.05;33.55
46506;BME280;32220;49.808;9.968;2023-06-22T09:19:51;98894.47;;;39.25;31.92
46506;BME280;32220;49.808;9.968;2023-06-22T09:22:19;98896.72;;;39.08;32.38
46506;BME280;32220;49.808;9.968;2023-06-22T09:24:47;98889.00;;;38.95;32.19
46506;BME280;32220;49.808;9.968;2023-06-22T09:27:17;98880.69;;;39.00;31.99
46506;BME280;32220;49.808;9.968;2023-06-22T09:29:45;98874.88;;;38.76;32.16
46506;BME280;32220;49.808;9.968;2023-06-22T09:32:13;98883.06;;;39.52;32.14
46506;BME280;32220;49.808;9.968;2023-06-22T09:34:41;98892.22;;;40.46;30.69
46506;BME280;32220;49.808;9.968;2023-06-22T09:37:08;98906.09;;;41.14;29.44
46506;BME280;32220;49.808;9.968;2023-06-22T09:39:36;98910.91;;;41.56;29.36
46506;BME280;32220;49.808;9.968;2023-06-22T09:42:04;98899.38;;;42.10;28.66
46506;BME280;32220;49.808;9.968;2023-06-22T09:44:34;98894.31;;;41.46;28.63
46506;BME280;32220;49.808;9.968;2023-06-22T09:47:02;98887.06;;;41.92;28.15
46506;BME280;32220;49.808;9.968;2023-06-22T09:49:30;98900.34;;;42.89;27.67
46506;BME280;32220;49.808;9.968;2023-06-22T09:51:58;98911.81;;;43.75;25.62
46506;BME280;32220;49.808;9.968;2023-06-22T09:54:26;98893.94;;;44.70;25.89
46506;BME280;32220;49.808;9.968;2023-06-22T09:56:53;98911.91;;;45.23;24.72
46506;BME280;32220;49.808;9.968;2023-06-22T09:59:21;98904.28;;;45.15;24.27
46506;BME280;32220;49.808;9.968;2023-06-22T10:01:50;98906.66;;;44.99;24.40
46506;BME280;32220;49.808;9.968;2023-06-22T10:04:18;98896.03;;;44.65;25.37
46506;BME280;32220;49.808;9.968;2023-06-22T10:06:46;98884.53;;;44.22;26.01
46506;BME280;32220;49.808;9.968;2023-06-22T10:09:14;98881.44;;;43.60;26.28
46506;BME280;32220;49.808;9.968;2023-06-22T10:11:41;98880.53;;;43.05;27.02
46506;BME280;32220;49.808;9.968;2023-06-22T10:14:09;98872.91;;;42.64;27.56
46506;BME280;32220;49.808;9.968;2023-06-22T10:16:37;98877.94;;;42.11;26.63
46506;BME280;32220;49.808;9.968;2023-06-22T10:19:06;98864.53;;;41.51;27.03
46506;BME280;32220;49.808;9.968;2023-06-22T10:21:34;98846.97;;;41.32;29.37
46506;BME280;32220;49.808;9.968;2023-06-22T10:24:02;98842.50;;;41.31;28.54
46506;BME280;32220;49.808;9.968;2023-06-22T10:26:32;98851.06;;;41.40;28.72
46506;BME280;32220;49.808;9.968;2023-06-22T10:29:00;98853.06;;;41.34;28.40
46506;BME280;32220;49.808;9.968;2023-06-22T10:31:28;98857.53;;;41.30;26.99
46506;BME280;32220;49.808;9.968;2023-06-22T10:33:56;98845.97;;;41.23;28.18
46506;BME280;32220;49.808;9.968;2023-06-22T10:36:26;98825.78;;;41.36;28.20
46506;BME280;32220;49.808;9.968;2023-06-22T10:38:53;98829.84;;;41.44;27.97
46506;BME280;32220;49.808;9.968;2023-06-22T10:41:21;98833.38;;;41.54;28.90
46506;BME280;32220;49.808;9.968;2023-06-22T10:43:49;98834.28;;;41.45;28.39
46506;BME280;32220;49.808;9.968;2023-06-22T10:46:16;98838.97;;;41.49;27.58
46506;BME280;32220;49.808;9.968;2023-06-22T10:48:44;98824.94;;;41.59;28.63
46506;BME280;32220;49.808;9.968;2023-06-22T10:51:12;98823.59;;;41.33;28.59
46506;BME280;32220;49.808;9.968;2023-06-22T10:53:41;98819.44;;;41.07;28.75
46506;BME280;32220;49.808;9.968;2023-06-22T10:56:09;98818.44;;;40.98;28.67
46506;BME280;32220;49.808;9.968;2023-06-22T10:58:36;98813.66;;;41.03;29.22
46506;BME280;32220;49.808;9.968;2023-06-22T11:01:04;98806.91;;;40.85;29.33
46506;BME280;32220;49.808;9.968;2023-06-22T11:03:32;98793.84;;;40.57;29.22
46506;BME280;32220;49.808;9.968;2023-06-22T11:06:01;98797.47;;;40.29;28.96
46506;BME280;32220;49.808;9.968;2023-06-22T11:08:29;98794.44;;;39.86;29.05
46506;BME280;32220;49.808;9.968;2023-06-22T11:10:58;98791.53;;;39.57;29.08
46506;BME280;32220;49.808;9.968;2023-06-22T11:13:26;98761.75;;;39.73;31.11
46506;BME280;32220;49.808;9.968;2023-06-22T11:15:53;98769.63;;;40.05;31.34
46506;BME280;32220;49.808;9.968;2023-06-22T11:18:21;98759.09;;;40.36;30.54
46506;BME280;32220;49.808;9.968;2023-06-22T11:20:49;98766.03;;;40.33;29.62
46506;BME280;32220;49.808;9.968;2023-06-22T11:23:17;98770.56;;;40.53;29.27
46506;BME280;32220;49.808;9.968;2023-06-22T11:25:45;98762.19;;;40.58;28.80
46506;BME280;32220;49.808;9.968;2023-06-22T11:28:14;98766.44;;;40.79;28.90
46506;BME280;32220;49.808;9.968;2023-06-22T11:30:42;98774.97;;;41.07;28.52
46506;BME280;32220;49.808;9.968;2023-06-22T11:33:10;98778.19;;;41.19;27.64
46506;BME280;32220;49.808;9.968;2023-06-22T11:35:37;98742.69;;;41.35;29.19
46506;BME280;32220;49.808;9.968;2023-06-22T11:38:05;98745.94;;;41.60;28.86
46506;BME280;32220;49.808;9.968;2023-06-22T11:40:33;98742.94;;;41.57;27.31
46506;BME280;32220;49.808;9.968;2023-06-22T11:43:01;98737.13;;;41.53;27.99
46506;BME280;32220;49.808;9.968;2023-06-22T11:45:30;98729.41;;;41.50;28.36
46506;BME280;32220;49.808;9.968;2023-06-22T11:47:58;98725.94;;;41.58;27.04
46506;BME280;32220;49.808;9.968;2023-06-22T11:50:25;98723.06;;;41.82;27.32
46506;BME280;32220;49.808;9.968;2023-06-22T11:52:54;98707.47;;;42.33;29.43
46506;BME280;32220;49.808;9.968;2023-06-22T11:55:22;98696.59;;;42.77;28.37
46506;BME280;32220;49.808;9.968;2023-06-22T11:57:55;98723.31;;;43.06;26.36
46506;BME280;32220;49.808;9.968;2023-06-22T12:00:25;98712.19;;;43.19;26.20
46506;BME280;32220;49.808;9.968;2023-06-22T12:02:54;98694.84;;;43.58;27.22
46506;BME280;32220;49.808;9.968;2023-06-22T12:05:22;98717.22;;;44.34;25.10
46506;BME280;32220;49.808;9.968;2023-06-22T12:07:53;98717.44;;;44.37;24.35
46506;BME280;32220;49.808;9.968;2023-06-22T12:10:21;98715.41;;;45.00;23.40
46506;BME280;32220;49.808;9.968;2023-06-22T12:12:48;98702.13;;;45.14;22.41
46506;BME280;32220;49.808;9.968;2023-06-22T12:15:16;98716.25;;;44.69;23.73
46506;BME280;32220;49.808;9.968;2023-06-22T12:17:44;98684.34;;;44.00;25.75
46506;BME280;32220;49.808;9.968;2023-06-22T12:20:13;98688.72;;;43.34;24.71
46506;BME280;32220;49.808;9.968;2023-06-22T12:22:42;98674.28;;;43.18;25.65
46506;BME280;32220;49.808;9.968;2023-06-22T12:25:09;98683.31;;;44.27;25.11
46506;BME280;32220;49.808;9.968;2023-06-22T12:27:37;98692.16;;;45.73;23.80
46506;BME280;32220;49.808;9.968;2023-06-22T12:30:06;98696.72;;;46.97;22.19
46506;BME280;32220;49.808;9.968;2023-06-22T12:32:34;98692.84;;;47.40;21.30
46506;BME280;32220;49.808;9.968;2023-06-22T12:35:02;98685.81;;;46.28;21.79
46506;BME280;32220;49.808;9.968;2023-06-22T12:37:32;98683.06;;;45.33;22.82
46506;BME280;32220;49.808;9.968;2023-06-22T12:40:00;98676.47;;;45.81;23.16
46506;BME280;32220;49.808;9.968;2023-06-22T12:42:27;98673.19;;;46.90;23.70
46506;BME280;32220;49.808;9.968;2023-06-22T12:44:55;98690.66;;;46.87;21.77
46506;BME280;32220;49.808;9.968;2023-06-22T12:47:22;98689.94;;;46.13;22.56
46506;BME280;32220;49.808;9.968;2023-06-22T12:49:50;98693.75;;;45.23;23.22
46506;BME280;32220;49.808;9.968;2023-06-22T12:52:18;98681.03;;;44.29;24.43
46506;BME280;32220;49.808;9.968;2023-06-22T12:54:47;98677.81;;;43.46;24.68
46506;BME280;32220;49.808;9.968;2023-06-22T12:57:15;98676.59;;;42.61;25.35
46506;BME280;32220;49.808;9.968;2023-06-22T12:59:43;98662.63;;;41.88;26.51
46506;BME280;32220;49.808;9.968;2023-06-22T13:02:11;98668.31;;;41.27;26.42
46506;BME280;32220;49.808;9.968;2023-06-22T13:04:39;98663.19;;;40.72;27.53
46506;BME280;32220;49.808;9.968;2023-06-22T13:07:07;98660.38;;;40.25;27.80
46506;BME280;32220;49.808;9.968;2023-06-22T13:09:36;98631.38;;;39.49;30.10
46506;BME280;32220;49.808;9.968;2023-06-22T13:12:06;98617.72;;;39.19;30.16